createdAt,value
2018-09-17T00:01:32.776Z,100.00
2018-09-17T00:04:01.595Z,100.00
2018-09-17T00:06:30.428Z,100.00
2018-09-17T00:08:59.349Z,100.00
2018-09-17T00:11:28.308Z,100.00
2018-09-17T00:13:57.216Z,100.00
2018-09-17T00:16:26.140Z,100.00
2018-09-17T00:18:55.091Z,100.00
2018-09-17T00:21:23.968Z,100.00
2018-09-17T00:23:53.144Z,100.00
2018-09-17T00:26:22.119Z,100.00
2018-09-17T00:28:51.028Z,100.00
2018-09-17T00:31:20.052Z,100.00
2018-09-17T00:33:49.388Z,100.00
2018-09-17T00:36:18.264Z,100.00
2018-09-17T00:38:47.263Z,100.00
2018-09-17T00:41:16.131Z,100.00
2018-09-17T00:43:45.047Z,100.00
2018-09-17T00:46:14.054Z,100.00
2018-09-17T00:48:43.035Z,100.00
2018-09-17T00:51:12.198Z,100.00
2018-09-17T00:53:41.096Z,100.00
2018-09-17T00:56:10.004Z,100.00
2018-09-17T00:58:39.037Z,100.00
2018-09-17T01:01:08.373Z,100.00
2018-09-17T01:03:37.776Z,100.00
2018-09-17T01:06:06.612Z,100.00
2018-09-17T01:08:35.629Z,100.00
2018-09-17T01:11:04.664Z,100.00
2018-09-17T01:13:33.844Z,99.73
2018-09-17T01:16:02.723Z,100.00
2018-09-17T01:18:31.628Z,100.00
2018-09-17T01:21:00.503Z,100.00
2018-09-17T01:23:29.423Z,100.00
2018-09-17T01:25:58.365Z,100.00
2018-09-17T01:28:27.377Z,99.06
2018-09-17T01:30:56.268Z,99.60
2018-09-17T01:33:25.240Z,98.35
2018-09-17T01:35:54.092Z,98.36
2018-09-17T01:38:23.121Z,99.76
2018-09-17T01:40:52.071Z,98.21
2018-09-17T01:43:21.349Z,98.24
2018-09-17T01:45:50.988Z,97.09
2018-09-17T01:48:19.988Z,94.72
2018-09-17T01:50:49.300Z,94.34
2018-09-17T01:53:18.199Z,94.95
2018-09-17T01:55:47.171Z,94.43
2018-09-17T01:58:16.124Z,92.44
2018-09-17T02:00:45.019Z,92.04
2018-09-17T02:03:14.341Z,92.00
2018-09-17T02:05:43.719Z,93.89
2018-09-17T02:08:12.851Z,93.66
2018-09-17T02:10:42.148Z,92.18
2018-09-17T02:13:11.203Z,93.89
2018-09-17T02:15:40.296Z,95.56
2018-09-17T02:18:09.652Z,93.97
2018-09-17T02:20:39.068Z,94.48
2018-09-17T02:23:08.276Z,94.61
2018-09-17T02:25:37.407Z,93.72
2018-09-17T02:28:06.723Z,92.52
2018-09-17T02:30:35.975Z,90.90
2018-09-17T02:33:05.285Z,91.49
2018-09-17T02:35:34.112Z,92.12
2018-09-17T02:38:03.486Z,92.34
2018-09-17T02:40:32.394Z,93.41
2018-09-17T02:43:01.312Z,92.22
2018-09-17T02:45:30.244Z,92.24
2018-09-17T02:47:59.119Z,92.24
2018-09-17T02:50:28.040Z,90.99
2018-09-17T02:52:57.016Z,91.08
2018-09-17T02:55:25.916Z,91.32
2018-09-17T02:57:54.820Z,88.90
2018-09-17T03:00:23.788Z,89.28
2018-09-17T03:02:53.555Z,89.28
2018-09-17T03:05:22.771Z,87.36
2018-09-17T03:07:51.933Z,86.82
2018-09-17T03:10:20.833Z,85.85
2018-09-17T03:12:49.904Z,84.56
2018-09-17T03:15:29.995Z,84.01
2018-09-17T03:17:58.979Z,83.96
2018-09-17T03:20:28.034Z,84.39
2018-09-17T03:22:57.040Z,85.28
2018-09-17T03:25:26.044Z,85.67
2018-09-17T03:27:54.960Z,84.52
2018-09-17T03:30:23.913Z,83.92
2018-09-17T03:32:52.894Z,84.47
2018-09-17T03:35:21.815Z,84.48
2018-09-17T03:37:50.783Z,82.59
2018-09-17T03:40:19.711Z,82.36
2018-09-17T03:42:48.756Z,80.88
2018-09-17T03:45:17.760Z,83.20
2018-09-17T03:47:46.766Z,82.53
2018-09-17T03:50:15.681Z,84.32
2018-09-17T03:52:44.555Z,84.00
2018-09-17T03:55:13.532Z,83.28
2018-09-17T03:57:42.411Z,83.27
2018-09-17T04:00:11.441Z,84.35
2018-09-17T04:02:40.424Z,84.96
2018-09-17T04:05:09.336Z,85.54
2018-09-17T04:07:38.300Z,84.58
2018-09-17T04:10:07.264Z,83.93
2018-09-17T04:12:36.160Z,83.45
2018-09-17T04:15:05.012Z,83.71
2018-09-17T04:17:33.924Z,82.52
2018-09-17T04:20:02.808Z,82.85
2018-09-17T04:22:31.890Z,82.61
2018-09-17T04:25:01.202Z,81.29
2018-09-17T04:27:30.039Z,83.35
2018-09-17T04:29:58.956Z,82.44
2018-09-17T04:32:28.335Z,82.80
2018-09-17T04:34:57.299Z,81.70
2018-09-17T04:37:26.301Z,82.64
2018-09-17T04:39:55.351Z,81.33
2018-09-17T04:42:24.288Z,81.90
2018-09-17T04:44:53.189Z,79.65
2018-09-17T04:47:22.391Z,79.45
2018-09-17T04:49:51.924Z,80.26
2018-09-17T04:52:20.864Z,79.97
2018-09-17T04:54:50.053Z,79.74
2018-09-17T04:57:19.650Z,79.78
2018-09-17T04:59:48.924Z,80.39
2018-09-17T05:02:18.040Z,80.66
2018-09-17T05:04:47.314Z,80.45
2018-09-17T05:07:16.398Z,79.00
2018-09-17T05:09:45.320Z,78.37
2018-09-17T05:12:14.251Z,77.75
2018-09-17T05:14:43.096Z,76.87
2018-09-17T05:17:12.036Z,77.13
2018-09-17T05:19:41.280Z,75.57
2018-09-17T05:22:10.372Z,76.44
2018-09-17T05:24:39.541Z,77.86
2018-09-17T05:27:08.548Z,78.15
2018-09-17T05:29:37.939Z,77.45
2018-09-17T05:32:07.396Z,78.27
2018-09-17T05:34:36.384Z,79.71
2018-09-17T05:37:05.463Z,76.99
2018-09-17T05:39:34.423Z,76.70
2018-09-17T05:42:03.440Z,76.13
2018-09-17T05:44:32.411Z,76.22
2018-09-17T05:47:01.312Z,77.05
2018-09-17T05:49:30.328Z,75.29
2018-09-17T05:51:59.444Z,76.06
2018-09-17T05:54:28.362Z,75.37
2018-09-17T05:56:57.192Z,76.53
2018-09-17T05:59:26.041Z,74.12
2018-09-17T06:01:54.971Z,75.37
2018-09-17T06:04:23.888Z,73.91
2018-09-17T06:06:52.838Z,73.16
2018-09-17T06:09:21.817Z,73.46
2018-09-17T06:11:50.844Z,73.24
2018-09-17T06:14:19.811Z,71.93
2018-09-17T06:16:48.757Z,70.93
2018-09-17T06:19:17.723Z,72.57
2018-09-17T06:21:46.676Z,72.39
2018-09-17T06:24:15.701Z,73.81
2018-09-17T06:26:44.692Z,70.25
2018-09-17T06:29:13.584Z,68.71
2018-09-17T06:31:42.532Z,69.25
2018-09-17T06:34:11.561Z,70.45
2018-09-17T06:36:40.649Z,69.89
2018-09-17T06:39:10.195Z,69.19
2018-09-17T06:41:39.147Z,72.07
2018-09-17T06:44:08.064Z,71.44
2018-09-17T06:46:37.081Z,71.91
2018-09-17T06:49:06.056Z,70.94
2018-09-17T06:51:35.228Z,72.04
2018-09-17T06:54:04.232Z,71.76
2018-09-17T06:56:33.965Z,69.14
2018-09-17T06:59:02.967Z,69.31
2018-09-17T07:01:31.823Z,70.90
2018-09-17T07:04:00.811Z,69.97
2018-09-17T07:06:30.016Z,68.87
2018-09-17T07:08:59.241Z,68.62
2018-09-17T07:11:28.432Z,70.68
2018-09-17T07:13:57.312Z,68.09
2018-09-17T07:16:26.259Z,67.17
2018-09-17T07:18:55.484Z,70.09
2018-09-17T07:21:24.818Z,68.41
2018-09-17T07:23:53.824Z,69.43
2018-09-17T07:26:22.771Z,67.70
2018-09-17T07:28:51.702Z,67.70
2018-09-17T07:31:20.649Z,66.95
2018-09-17T07:33:50.385Z,67.46
2018-09-17T07:36:19.533Z,66.23
2018-09-17T07:38:48.373Z,68.11
2018-09-17T07:41:17.268Z,66.51
2018-09-17T07:43:46.278Z,65.68
2018-09-17T07:46:15.252Z,67.28
2018-09-17T07:48:44.267Z,66.83
2018-09-17T07:51:13.175Z,67.63
2018-09-17T07:53:42.336Z,67.31
2018-09-17T07:56:11.687Z,66.64
2018-09-17T07:58:40.711Z,68.13
2018-09-17T08:01:09.676Z,68.37
2018-09-17T08:03:38.563Z,69.48
2018-09-17T08:06:07.827Z,70.10
2018-09-17T08:08:36.882Z,69.13
2018-09-17T08:11:05.864Z,68.77
2018-09-17T08:13:35.105Z,68.22
2018-09-17T08:16:04.552Z,66.29
2018-09-17T08:18:33.392Z,68.47
2018-09-17T08:21:02.373Z,67.70
2018-09-17T08:23:31.872Z,68.38
2018-09-17T08:26:01.178Z,66.64
2018-09-17T08:28:30.067Z,66.97
2018-09-17T08:30:59.055Z,69.34
2018-09-17T08:33:27.960Z,67.38
2018-09-17T08:35:56.884Z,65.87
2018-09-17T08:38:26.036Z,64.00
2018-09-17T08:40:55.396Z,65.25
2018-09-17T08:43:24.360Z,65.88
2018-09-17T08:45:53.241Z,64.66
2018-09-17T08:48:22.216Z,65.52
2018-09-17T08:50:51.189Z,67.78
2018-09-17T08:53:20.028Z,67.39
2018-09-17T08:55:54.317Z,66.42
2018-09-17T08:58:24.834Z,66.66
2018-09-17T09:01:04.009Z,62.64
2018-09-17T09:03:38.772Z,63.05
2018-09-17T09:06:12.721Z,65.16
2018-09-17T09:08:41.694Z,65.73
2018-09-17T09:11:20.617Z,62.75
2018-09-17T09:13:54.627Z,64.40
2018-09-17T09:16:24.329Z,61.68
2018-09-17T09:18:53.317Z,61.72
2018-09-17T09:21:22.266Z,65.02
2018-09-17T09:23:51.456Z,63.42
2018-09-17T09:26:20.365Z,66.19
2018-09-17T09:28:49.248Z,65.67
2018-09-17T09:31:18.156Z,63.91
2018-09-17T09:33:47.125Z,62.45
2018-09-17T09:36:16.180Z,61.93
2018-09-17T09:38:45.110Z,66.52
2018-09-17T09:41:14.060Z,63.21
2018-09-17T09:43:42.887Z,64.81
2018-09-17T09:46:11.780Z,64.80
2018-09-17T09:48:40.785Z,62.05
2018-09-17T09:51:09.768Z,62.56
2018-09-17T09:53:38.669Z,62.50
2018-09-17T09:56:07.727Z,63.72
2018-09-17T09:58:36.574Z,62.81
2018-09-17T10:01:10.858Z,61.69
2018-09-17T10:03:42.823Z,61.58
2018-09-17T10:06:12.704Z,60.87
2018-09-17T10:08:46.784Z,62.41
2018-09-17T10:11:20.792Z,63.28
2018-09-17T10:13:54.632Z,62.28
2018-09-17T10:16:23.636Z,61.01
2018-09-17T10:18:57.544Z,62.27
2018-09-17T10:21:26.464Z,60.79
2018-09-17T10:23:55.716Z,60.09
2018-09-17T10:26:24.601Z,58.91
2018-09-17T10:28:53.472Z,61.58
2018-09-17T10:31:22.437Z,60.12
2018-09-17T10:33:51.341Z,62.11
2018-09-17T10:36:20.318Z,60.78
2018-09-17T10:38:49.727Z,61.91
2018-09-17T10:41:18.579Z,62.37
2018-09-17T10:43:47.745Z,65.06
2018-09-17T10:46:17.066Z,63.05
2018-09-17T10:48:46.500Z,60.76
2018-09-17T10:51:15.452Z,60.78
2018-09-17T10:53:44.357Z,61.13
2018-09-17T10:56:13.264Z,60.91
2018-09-17T10:58:42.481Z,63.11
2018-09-17T11:01:11.340Z,64.98
2018-09-17T11:03:40.345Z,64.38
2018-09-17T11:06:09.372Z,62.40
2018-09-17T11:08:38.328Z,60.88
2018-09-17T11:11:07.652Z,63.52
2018-09-17T11:13:36.688Z,65.27
2018-09-17T11:16:05.616Z,62.52
2018-09-17T11:18:34.503Z,60.50
2018-09-17T11:21:03.405Z,60.52
2018-09-17T11:23:32.257Z,62.85
2018-09-17T11:26:01.480Z,61.43
2018-09-17T11:28:30.780Z,61.18
2018-09-17T11:30:59.648Z,62.34
2018-09-17T11:33:28.873Z,60.54
2018-09-17T11:35:57.767Z,61.07
2018-09-17T11:38:26.629Z,60.62
2018-09-17T11:40:55.465Z,59.45
2018-09-17T11:43:24.319Z,61.07
2018-09-17T11:45:53.240Z,59.50
2018-09-17T11:48:22.227Z,57.51
2018-09-17T11:50:51.590Z,60.21
2018-09-17T11:53:20.868Z,62.79
2018-09-17T11:55:50.042Z,60.14
2018-09-17T11:58:19.001Z,57.99
2018-09-17T12:00:54.180Z,57.21
2018-09-17T12:03:28.236Z,59.17
2018-09-17T12:06:01.390Z,58.78
2018-09-17T12:08:30.328Z,62.15
2018-09-17T12:10:59.253Z,60.87
2018-09-17T12:13:28.143Z,60.73
2018-09-17T12:15:57.053Z,59.91
2018-09-17T12:18:25.955Z,61.39
2018-09-17T12:20:54.888Z,60.50
2018-09-17T12:23:23.851Z,59.70
2018-09-17T12:25:52.690Z,59.40
2018-09-17T12:28:21.631Z,58.91
2018-09-17T12:30:50.541Z,56.34
2018-09-17T12:33:19.456Z,57.14
2018-09-17T12:35:48.407Z,56.62
2018-09-17T12:38:17.484Z,59.49
2018-09-17T12:40:46.496Z,60.65
2018-09-17T12:43:15.472Z,62.69
2018-09-17T12:45:44.394Z,61.75
2018-09-17T12:48:13.394Z,58.80
2018-09-17T12:50:42.299Z,59.68
2018-09-17T12:53:11.235Z,59.84
2018-09-17T12:55:40.092Z,58.53
2018-09-17T12:58:09.232Z,59.58
2018-09-17T13:00:38.142Z,57.48
2018-09-17T13:03:07.024Z,59.33
2018-09-17T13:05:35.940Z,59.76
2018-09-17T13:08:04.812Z,59.75
2018-09-17T13:10:34.121Z,60.17
2018-09-17T13:13:03.447Z,61.23
2018-09-17T13:15:32.332Z,59.10
2018-09-17T13:18:01.204Z,59.62
2018-09-17T13:20:30.048Z,60.55
2018-09-17T13:22:59.079Z,61.02
2018-09-17T13:25:28.011Z,58.49
2018-09-17T13:27:56.852Z,60.78
2018-09-17T13:30:25.853Z,59.67
2018-09-17T13:32:54.825Z,59.11
2018-09-17T13:35:23.860Z,59.13
2018-09-17T13:37:52.775Z,60.55
2018-09-17T13:40:21.744Z,61.91
2018-09-17T13:42:50.733Z,61.61
2018-09-17T13:45:19.733Z,57.81
2018-09-17T13:47:48.597Z,57.64
2018-09-17T13:50:17.786Z,59.30
2018-09-17T13:52:47.240Z,59.17
2018-09-17T13:55:16.670Z,59.00
2018-09-17T13:57:45.908Z,60.29
2018-09-17T14:00:14.992Z,60.08
2018-09-17T14:02:43.833Z,60.96
2018-09-17T14:05:12.804Z,61.80
2018-09-17T14:07:41.717Z,60.69
2018-09-17T14:10:10.882Z,58.63
2018-09-17T14:12:40.117Z,58.81
2018-09-17T14:15:09.536Z,59.68
2018-09-17T14:17:38.480Z,59.53
2018-09-17T14:20:07.783Z,58.95
2018-09-17T14:22:37.282Z,61.53
2018-09-17T14:25:06.746Z,61.05
2018-09-17T14:27:35.908Z,60.73
2018-09-17T14:30:04.956Z,61.06
2018-09-17T14:32:39.102Z,58.77
2018-09-17T14:35:08.054Z,57.66
2018-09-17T14:37:37.001Z,53.43
2018-09-17T14:40:05.928Z,52.07
2018-09-17T14:42:34.936Z,51.30
2018-09-17T14:45:03.946Z,50.13
2018-09-17T14:47:33.303Z,48.76
2018-09-17T14:50:02.219Z,48.93
2018-09-17T14:52:31.060Z,49.26
2018-09-17T14:55:00.437Z,46.61
2018-09-17T14:57:29.424Z,45.91
2018-09-17T14:59:58.359Z,46.09
2018-09-17T15:02:27.351Z,47.07
2018-09-17T15:04:56.321Z,51.30
2018-09-17T15:07:25.360Z,52.34
2018-09-17T15:09:54.784Z,50.85
2018-09-17T15:12:24.102Z,49.40
2018-09-17T15:14:53.347Z,47.37
2018-09-17T15:17:23.112Z,47.88
2018-09-17T15:19:52.155Z,49.02
2018-09-17T15:22:21.148Z,48.92
2018-09-17T15:24:50.769Z,48.88
2018-09-17T15:27:19.700Z,48.85
2018-09-17T15:29:48.639Z,49.53
2018-09-17T15:32:17.776Z,48.59
2018-09-17T15:34:46.712Z,51.60
2018-09-17T15:37:16.832Z,51.73
2018-09-17T15:39:45.775Z,52.29
2018-09-17T15:42:15.024Z,49.81
2018-09-17T15:44:43.978Z,50.83
2018-09-17T15:47:13.387Z,53.72
2018-09-17T15:49:42.321Z,51.29
2018-09-17T15:52:11.258Z,52.23
2018-09-17T15:54:40.261Z,53.42
2018-09-17T15:57:09.104Z,56.64
2018-09-17T15:59:38.042Z,55.53
2018-09-17T16:02:07.216Z,55.25
2018-09-17T16:04:36.216Z,55.87
2018-09-17T16:07:05.195Z,59.44
2018-09-17T16:09:34.112Z,58.83
2018-09-17T16:12:03.269Z,58.91
2018-09-17T16:14:32.713Z,60.13
2018-09-17T16:17:01.693Z,59.43
2018-09-17T16:19:30.693Z,61.97
2018-09-17T16:21:59.964Z,63.15
2018-09-17T16:24:29.239Z,65.18
2018-09-17T16:26:58.050Z,66.02
2018-09-17T16:29:27.149Z,67.11
2018-09-17T16:31:55.990Z,68.66
2018-09-17T16:34:24.885Z,70.24
2018-09-17T16:36:53.898Z,70.25
2018-09-17T16:39:22.880Z,70.20
2018-09-17T16:41:51.885Z,71.25
2018-09-17T16:44:20.829Z,70.65
2018-09-17T16:46:50.982Z,73.14
2018-09-17T16:49:19.923Z,74.57
2018-09-17T16:51:48.916Z,73.22
2018-09-17T16:54:17.923Z,72.76
2018-09-17T16:56:46.860Z,71.81
2018-09-17T16:59:15.763Z,72.18
2018-09-17T17:01:44.744Z,72.49
2018-09-17T17:04:14.533Z,73.75
2018-09-17T17:06:43.797Z,73.21
2018-09-17T17:09:12.756Z,73.72
2018-09-17T17:11:41.641Z,72.82
2018-09-17T17:14:10.642Z,72.67
2018-09-17T17:16:39.767Z,73.10
2018-09-17T17:19:08.646Z,74.09
2018-09-17T17:21:37.605Z,76.65
2018-09-17T17:24:06.444Z,76.65
2018-09-17T17:26:35.420Z,77.41
2018-09-17T17:29:04.379Z,76.39
2018-09-17T17:31:33.284Z,74.96
2018-09-17T17:34:02.248Z,73.65
2018-09-17T17:36:31.573Z,73.55
2018-09-17T17:39:00.760Z,72.33
2018-09-17T17:41:29.792Z,72.53
2018-09-17T17:43:58.776Z,73.59
2018-09-17T17:46:27.784Z,73.55
2018-09-17T17:48:56.840Z,73.81
2018-09-17T17:51:25.707Z,75.03
2018-09-17T17:53:54.670Z,73.12
2018-09-17T17:56:23.862Z,73.76
2018-09-17T17:58:52.768Z,73.77
2018-09-17T18:01:21.831Z,75.21
2018-09-17T18:03:50.832Z,76.18
2018-09-17T18:06:19.764Z,74.59
2018-09-17T18:08:49.072Z,76.28
2018-09-17T18:11:18.047Z,75.11
2018-09-17T18:13:46.970Z,74.55
2018-09-17T18:16:15.843Z,74.47
2018-09-17T18:18:44.781Z,73.25
2018-09-17T18:21:13.802Z,73.46
2018-09-17T18:23:43.623Z,74.20
2018-09-17T18:26:12.706Z,73.40
2018-09-17T18:28:41.720Z,74.55
2018-09-17T18:31:10.705Z,72.64
2018-09-17T18:33:39.567Z,72.46
2018-09-17T18:36:08.756Z,71.63
2018-09-17T18:38:37.753Z,73.00
2018-09-17T18:41:06.603Z,73.85
2018-09-17T18:43:35.607Z,75.00
2018-09-17T18:46:04.576Z,73.78
2018-09-17T18:48:33.607Z,75.15
2018-09-17T18:51:02.698Z,74.42
2018-09-17T18:53:31.704Z,74.24
2018-09-17T18:56:00.608Z,74.24
2018-09-17T18:58:29.518Z,73.39
2018-09-17T19:00:58.399Z,73.70
2018-09-17T19:03:27.362Z,72.50
2018-09-17T19:05:56.240Z,71.63
2018-09-17T19:08:25.338Z,72.00
2018-09-17T19:10:54.325Z,73.11
2018-09-17T19:13:23.209Z,72.31
2018-09-17T19:15:54.892Z,73.10
2018-09-17T19:18:23.807Z,72.46
2018-09-17T19:20:53.546Z,72.28
2018-09-17T19:23:27.075Z,72.94
2018-09-17T19:25:56.515Z,73.84
2018-09-17T19:28:30.428Z,72.63
2018-09-17T19:30:59.460Z,73.76
2018-09-17T19:33:28.328Z,71.48
2018-09-17T19:35:57.397Z,71.22
2018-09-17T19:38:31.251Z,72.66
2018-09-17T19:41:00.206Z,71.69
2018-09-17T19:43:29.179Z,73.01
2018-09-17T19:46:03.142Z,73.22
2018-09-17T19:48:32.506Z,74.83
2018-09-17T19:51:06.710Z,73.48
2018-09-17T19:53:35.683Z,71.37
2018-09-17T19:56:04.876Z,69.79
2018-09-17T19:58:38.988Z,68.31
2018-09-17T20:01:07.898Z,71.58
2018-09-17T20:03:36.800Z,70.63
2018-09-17T20:06:10.711Z,70.17
2018-09-17T20:08:46.104Z,72.39
2018-09-17T20:11:15.158Z,70.99
2018-09-17T20:13:44.049Z,70.09
2018-09-17T20:16:13.328Z,70.70
2018-09-17T20:18:42.525Z,71.17
2018-09-17T20:21:12.335Z,72.51
2018-09-17T20:23:41.641Z,73.10
2018-09-17T20:26:11.064Z,74.35
2018-09-17T20:28:40.029Z,72.33
2018-09-17T20:31:09.004Z,70.99
2018-09-17T20:33:37.888Z,70.09
2018-09-17T20:36:06.873Z,69.27
2018-09-17T20:38:36.006Z,70.91
2018-09-17T20:41:06.068Z,72.03
2018-09-17T20:43:35.040Z,75.70
2018-09-17T20:46:04.360Z,79.26
2018-09-17T20:48:33.761Z,82.92
2018-09-17T20:51:02.669Z,82.74
2018-09-17T20:53:31.556Z,84.43
2018-09-17T20:56:00.501Z,82.60
2018-09-17T20:58:29.724Z,84.69
2018-09-17T21:00:58.972Z,85.47
2018-09-17T21:03:27.835Z,86.12
2018-09-17T21:05:57.024Z,86.72
2018-09-17T21:08:26.049Z,86.59
2018-09-17T21:10:55.221Z,86.85
2018-09-17T21:13:24.192Z,87.11
2018-09-17T21:15:53.055Z,87.57
2018-09-17T21:18:22.113Z,87.29
2018-09-17T21:20:51.344Z,87.10
2018-09-17T21:23:20.793Z,87.67
2018-09-17T21:25:49.968Z,87.72
2018-09-17T21:28:18.928Z,87.32
2018-09-17T21:30:48.231Z,87.06
2018-09-17T21:33:17.221Z,87.45
2018-09-17T21:35:46.107Z,87.12
2018-09-17T21:38:15.256Z,88.18
2018-09-17T21:40:44.386Z,87.52
2018-09-17T21:43:13.301Z,86.80
2018-09-17T21:45:42.236Z,86.42
2018-09-17T21:48:11.320Z,86.98
2018-09-17T21:50:40.587Z,84.06
2018-09-17T21:53:09.755Z,84.69
2018-09-17T21:55:39.037Z,86.73
2018-09-17T21:58:08.340Z,87.85
2018-09-17T22:00:42.435Z,86.57
2018-09-17T22:03:11.412Z,87.05
2018-09-17T22:05:40.384Z,87.49
2018-09-17T22:08:09.384Z,86.96
2018-09-17T22:10:38.436Z,85.96
2018-09-17T22:13:07.880Z,87.07
2018-09-17T22:15:36.839Z,87.25
2018-09-17T22:18:05.783Z,88.11
2018-09-17T22:20:34.620Z,88.45
2018-09-17T22:23:03.846Z,88.57
2018-09-17T22:25:32.711Z,89.64
2018-09-17T22:28:01.668Z,87.56
2018-09-17T22:30:30.550Z,86.60
2018-09-17T22:32:59.805Z,85.49
2018-09-17T22:35:28.695Z,87.85
2018-09-17T22:37:57.541Z,86.81
2018-09-17T22:40:26.416Z,87.06
2018-09-17T22:42:55.446Z,85.80
2018-09-17T22:45:24.359Z,88.47
2018-09-17T22:47:53.620Z,88.37
2018-09-17T22:50:22.536Z,87.46
2018-09-17T22:52:51.644Z,88.34
2018-09-17T22:55:20.673Z,88.20
2018-09-17T22:57:49.668Z,87.93
2018-09-17T23:00:18.955Z,86.55
2018-09-17T23:02:47.913Z,86.30
2018-09-17T23:05:16.972Z,88.02
2018-09-17T23:07:45.947Z,88.23
2018-09-17T23:10:14.910Z,87.84
2018-09-17T23:12:44.394Z,88.50
2018-09-17T23:15:13.380Z,87.28
2018-09-17T23:17:42.268Z,84.28
2018-09-17T23:20:11.625Z,85.36
2018-09-17T23:22:41.069Z,86.84
2018-09-17T23:25:10.308Z,87.54
2018-09-17T23:27:39.556Z,87.85
2018-09-17T23:30:08.608Z,89.05
2018-09-17T23:32:37.635Z,90.02
2018-09-17T23:35:06.679Z,90.32
2018-09-17T23:37:35.807Z,91.02
2018-09-17T23:40:04.968Z,91.89
2018-09-17T23:42:34.398Z,91.77
2018-09-17T23:45:03.653Z,92.11
2018-09-17T23:47:32.709Z,92.81
2018-09-17T23:50:01.700Z,92.93
2018-09-17T23:52:30.567Z,92.88
2018-09-17T23:54:59.568Z,92.00
2018-09-17T23:57:28.487Z,93.17
2018-09-17T23:59:57.786Z,93.38
